Time;durP1;ratioP1;P1;durP2;ratioP2;P2;SDS_P1;SDS_P2;PMS_P1;PMS_P2;Temp;Humidity;BMP_temperature;BMP_pressure;BME280_temperature;BME280_humidity;BME280_pressure;Samples;Min_cycle;Max_cycle;Signal;HPM_P1;HPM_P2
2022/05/30 00:00:40;;;;;;;1.33;0.90;;;8.80;99.90;;;;;;4950626;28;20496;-76
2022/05/30 00:03:07;;;;;;;3.33;0.95;;;8.70;99.90;;;;;;4950649;29;20021;-76
2022/05/30 00:05:34;;;;;;;2.25;1.00;;;8.70;99.90;;;;;;4949940;29;20514;-76
2022/05/30 00:08:03;;;;;;;0.98;0.98;;;8.70;99.90;;;;;;4950940;29;20051;-76
2022/05/30 00:10:29;;;;;;;1.10;0.82;;;8.70;99.90;;;;;;4949443;28;20037;-76
2022/05/30 00:12:55;;;;;;;2.50;0.70;;;8.70;99.90;;;;;;4949929;28;20031;-76
2022/05/30 00:15:22;;;;;;;1.10;1.02;;;8.70;99.90;;;;;;4949658;28;20138;-76
2022/05/30 00:17:48;;;;;;;1.40;0.70;;;8.70;99.90;;;;;;4950428;29;20035;-76
2022/05/30 00:20:14;;;;;;;2.00;0.70;;;8.70;99.90;;;;;;4951323;29;20034;-76
2022/05/30 00:22:40;;;;;;;1.02;1.00;;;8.60;99.90;;;;;;4951032;29;20039;-76
2022/05/30 00:25:07;;;;;;;1.00;0.85;;;8.60;99.90;;;;;;4950861;29;20380;-76
2022/05/30 00:27:32;;;;;;;1.02;0.90;;;8.50;99.90;;;;;;4949665;29;20053;-76
2022/05/30 00:29:58;;;;;;;3.13;1.05;;;8.60;99.90;;;;;;4950537;29;20572;-76
2022/05/30 00:32:25;;;;;;;1.85;1.70;;;8.60;99.90;;;;;;4933618;29;20389;-76
2022/05/30 00:34:51;;;;;;;1.02;0.90;;;8.50;99.90;;;;;;4951119;29;20023;-76
2022/05/30 00:37:18;;;;;;;8.35;1.25;;;8.50;99.90;;;;;;4949268;29;20035;-76
2022/05/30 00:39:43;;;;;;;2.10;1.00;;;8.40;99.90;;;;;;4950558;29;20103;-76
2022/05/30 00:42:16;;;;;;;2.80;1.08;;;8.30;99.90;;;;;;4950847;29;20110;-76
2022/05/30 00:44:43;;;;;;;1.25;1.15;;;8.30;99.90;;;;;;4946743;29;20500;-76
2022/05/30 00:47:10;;;;;;;1.48;0.90;;;8.20;99.90;;;;;;4914307;29;20059;-76
2022/05/30 00:49:38;;;;;;;1.40;1.30;;;8.10;99.90;;;;;;4931624;29;20023;-76
2022/05/30 00:52:08;;;;;;;0.90;0.90;;;8.10;99.90;;;;;;4914771;29;20131;-75
2022/05/30 00:54:43;;;;;;;2.85;1.13;;;8.00;99.90;;;;;;4914653;29;20020;-76
2022/05/30 00:57:21;;;;;;;1.50;1.40;;;8.00;99.90;;;;;;4931719;29;20028;-75
2022/05/30 00:59:52;;;;;;;1.85;1.30;;;7.90;99.90;;;;;;4931963;29;20399;-76
2022/05/30 01:02:19;;;;;;;0.93;0.93;;;7.80;99.90;;;;;;4932327;29;20559;-76
2022/05/30 01:07:31;;;;;;;0.98;0.95;;;7.60;99.90;;;;;;4937282;29;20055;-76
2022/05/30 01:09:57;;;;;;;0.90;0.90;;;7.50;99.90;;;;;;4937815;29;20031;-76
2022/05/30 01:12:56;;;;;;;1.30;1.20;;;7.30;99.90;;;;;;4940444;29;20028;-76
2022/05/30 01:15:26;;;;;;;1.52;1.27;;;7.30;99.90;;;;;;4910244;29;20126;-76
2022/05/30 01:17:55;;;;;;;;;;;7.20;99.90;;;;;;4943156;29;20540;-75
2022/05/30 01:20:36;;;;;;;1.25;1.23;;;7.10;99.90;;;;;;4939706;29;19978;-76
2022/05/30 01:23:24;;;;;;;1.33;1.23;;;7.00;99.90;;;;;;4939552;29;20027;-76
2022/05/30 01:25:53;;;;;;;1.40;1.30;;;6.90;99.90;;;;;;4940280;29;20091;-76
2022/05/30 01:28:36;;;;;;;1.10;1.02;;;6.90;99.90;;;;;;4937445;29;20019;-75
2022/05/30 01:31:03;;;;;;;1.23;1.05;;;6.90;99.90;;;;;;4936134;29;20034;-76
2022/05/30 01:33:29;;;;;;;1.90;1.58;;;;;;;;;;4918738;29;20038;-76
2022/05/30 01:35:54;;;;;;;1.60;1.15;;;6.80;99.90;;;;;;4919231;29;20024;-76
2022/05/30 01:38:22;;;;;;;6.53;2.47;;;6.70;99.90;;;;;;4945282;29;20102;-76
2022/05/30 01:40:48;;;;;;;2.78;1.33;;;6.60;99.90;;;;;;4943993;29;20032;-76
2022/05/30 01:43:15;;;;;;;3.22;1.40;;;6.60;99.90;;;;;;4937337;29;20385;-75
2022/05/30 01:45:42;;;;;;;1.67;1.58;;;;;;;;;;4936659;29;20035;-75
2022/05/30 01:48:08;;;;;;;1.70;1.60;;;6.70;99.90;;;;;;4937662;29;20485;-76
2022/05/30 01:50:35;;;;;;;1.42;1.15;;;6.70;99.90;;;;;;4934509;29;20030;-75
2022/05/30 01:53:01;;;;;;;3.15;1.40;;;;;;;;;;4935791;29;20070;-76
2022/05/30 01:55:26;;;;;;;2.28;1.48;;;6.70;99.90;;;;;;4943669;29;20500;-76
2022/05/30 01:57:52;;;;;;;3.40;1.23;;;6.60;99.90;;;;;;4937381;29;20047;-76
2022/05/30 02:00:18;;;;;;;1.27;1.17;;;6.70;99.90;;;;;;4936575;29;20266;-76
2022/05/30 02:02:44;;;;;;;2.42;1.40;;;6.60;99.90;;;;;;4936974;29;20351;-76
2022/05/30 02:05:11;;;;;;;1.20;1.15;;;6.50;99.90;;;;;;4920973;29;20638;-75
2022/05/30 02:07:37;;;;;;;2.03;1.20;;;6.50;99.90;;;;;;4936966;29;20055;-76
2022/05/30 02:10:04;;;;;;;1.92;1.30;;;6.50;99.90;;;;;;4937792;29;20055;-76
2022/05/30 02:12:30;;;;;;;1.50;1.30;;;6.50;99.90;;;;;;4938008;29;20309;-75
2022/05/30 02:14:56;;;;;;;3.08;1.60;;;6.50;99.90;;;;;;4936579;29;20122;-76
2022/05/30 02:17:21;;;;;;;2.55;1.38;;;6.50;99.90;;;;;;4920491;29;20058;-76
2022/05/30 02:19:47;;;;;;;1.45;1.15;;;6.40;99.90;;;;;;4937151;29;20024;-75
2022/05/30 02:22:19;;;;;;;1.70;1.48;;;6.40;99.90;;;;;;4935983;29;20031;-76
2022/05/30 02:24:51;;;;;;;1.45;1.30;;;6.40;99.90;;;;;;4936065;29;20255;-76
2022/05/30 02:27:17;;;;;;;4.95;1.35;;;6.30;99.90;;;;;;4935249;29;20500;-76
2022/05/30 02:29:43;;;;;;;1.90;1.27;;;6.30;99.90;;;;;;4935541;29;20027;-76
2022/05/30 02:32:10;;;;;;;4.95;1.98;;;6.30;99.90;;;;;;4934269;29;20031;-76
2022/05/30 02:37:21;;;;;;;2.13;1.30;;;6.10;99.90;;;;;;4935510;29;20400;-75
2022/05/30 02:39:48;;;;;;;2.03;1.77;;;6.00;99.90;;;;;;4935036;29;20056;-76
2022/05/30 02:42:14;;;;;;;4.45;2.25;;;6.40;99.90;;;;;;4943969;29;20106;-76
2022/05/30 02:44:39;;;;;;;2.45;1.40;;;6.20;99.90;;;;;;4930127;29;20508;-75
2022/05/30 02:47:06;;;;;;;3.28;1.95;;;6.20;99.90;;;;;;4945600;29;20028;-76
2022/05/30 02:49:32;;;;;;;3.00;1.75;;;6.10;99.90;;;;;;4944703;29;20495;-75
2022/05/30 02:51:59;;;;;;;5.55;2.17;;;6.10;99.90;;;;;;4946789;29;20027;-75
2022/05/30 02:54:25;;;;;;;4.05;1.83;;;6.10;99.90;;;;;;4930722;29;20036;-75
2022/05/30 02:56:55;;;;;;;2.85;2.08;;;6.20;99.90;;;;;;4931026;29;20034;-76
2022/05/30 02:59:21;;;;;;;;;;;6.20;99.90;;;;;;4943298;29;20408;-76
2022/05/30 03:01:47;;;;;;;2.75;1.50;;;6.30;99.90;;;;;;4940249;29;19915;-76
2022/05/30 03:04:15;;;;;;;3.13;2.15;;;6.30;99.90;;;;;;4942518;29;20034;-76
2022/05/30 03:06:42;;;;;;;4.38;1.65;;;6.20;99.90;;;;;;4940761;29;20028;-76
2022/05/30 03:09:09;;;;;;;2.92;2.03;;;6.20;99.90;;;;;;4923083;29;20034;-76
2022/05/30 03:11:38;;;;;;;1.77;1.60;;;6.20;99.90;;;;;;4939686;29;20040;-76
2022/05/30 03:14:04;;;;;;;2.43;1.80;;;6.00;99.90;;;;;;4941617;29;20059;-75
2022/05/30 03:16:30;;;;;;;2.92;1.40;;;6.10;99.90;;;;;;4938039;29;20021;-75
2022/05/30 03:18:56;;;;;;;4.72;2.03;;;6.10;99.90;;;;;;4935265;29;20031;-76
2022/05/30 03:21:21;;;;;;;3.20;2.53;;;6.00;99.90;;;;;;4921997;29;20190;-76
2022/05/30 03:23:47;;;;;;;4.82;2.10;;;6.00;99.90;;;;;;4939978;29;20028;-76
2022/05/30 03:26:14;;;;;;;5.72;1.70;;;6.00;99.90;;;;;;4938335;29;20032;-76
2022/05/30 03:28:43;;;;;;;3.22;1.52;;;6.00;99.90;;;;;;4945062;29;20027;-75
2022/05/30 03:31:09;;;;;;;3.33;2.00;;;6.00;99.90;;;;;;4947513;29;20024;-76
2022/05/30 03:33:37;;;;;;;2.20;1.73;;;6.00;99.90;;;;;;4950710;29;20027;-76
2022/05/30 03:36:17;;;;;;;1.88;1.60;;;5.90;99.90;;;;;;4949864;29;20035;-75
2022/05/30 03:38:43;;;;;;;3.95;2.45;;;5.90;99.90;;;;;;4934293;29;20493;-75
2022/05/30 03:41:12;;;;;;;2.42;1.95;;;5.90;99.90;;;;;;4949331;29;20050;-76
2022/05/30 03:43:38;;;;;;;3.60;2.13;;;5.90;99.90;;;;;;4939986;29;20079;-76
2022/05/30 03:46:04;;;;;;;4.63;2.22;;;5.90;99.90;;;;;;4935281;29;20036;-75
2022/05/30 03:48:30;;;;;;;2.30;2.10;;;5.90;99.90;;;;;;4935071;29;20024;-75
2022/05/30 03:50:56;;;;;;;3.63;2.08;;;5.90;99.90;;;;;;4935338;29;20043;-76
2022/05/30 03:53:22;;;;;;;4.53;2.50;;;6.00;99.90;;;;;;4935689;29;20020;-75
2022/05/30 03:55:47;;;;;;;3.85;2.70;;;6.00;99.90;;;;;;4935602;29;20024;-75
2022/05/30 03:58:14;;;;;;;3.80;2.72;;;6.00;99.90;;;;;;4941476;29;20032;-75
2022/05/30 04:00:41;;;;;;;4.60;2.25;;;6.00;99.90;;;;;;4933714;29;20032;-76
2022/05/30 04:03:07;;;;;;;2.40;1.90;;;6.10;99.90;;;;;;4934028;29;20047;-76
2022/05/30 04:05:48;;;;;;;2.58;2.38;;;6.10;99.90;;;;;;4933966;29;20063;-77
2022/05/30 04:08:14;;;;;;;4.65;1.88;;;6.10;99.90;;;;;;4935556;29;20028;-76
2022/05/30 04:10:40;;;;;;;5.28;2.50;;;6.10;99.90;;;;;;4933127;29;20036;-76
2022/05/30 04:13:12;;;;;;;4.82;2.33;;;6.10;99.90;;;;;;4932601;29;20041;-75
2022/05/30 04:15:38;;;;;;;5.38;3.13;;;6.10;99.90;;;;;;4934120;29;20032;-76
2022/05/30 04:18:05;;;;;;;3.90;2.38;;;6.10;99.90;;;;;;4942861;29;20185;-75
2022/05/30 04:20:31;;;;;;;4.03;2.90;;;6.10;99.90;;;;;;4939485;29;20024;-76
2022/05/30 04:22:57;;;;;;;2.67;2.15;;;6.20;99.90;;;;;;4916670;29;20031;-76
2022/05/30 04:25:23;;;;;;;3.50;2.90;;;6.20;99.90;;;;;;4934303;29;20034;-75
2022/05/30 04:27:49;;;;;;;5.53;1.80;;;;;;;;;;4934608;29;20027;-75
2022/05/30 04:30:15;;;;;;;4.72;2.25;;;6.30;99.90;;;;;;4933126;29;20031;-75
2022/05/30 04:32:40;;;;;;;3.50;2.35;;;6.30;99.90;;;;;;4933178;29;20019;-76
2022/05/30 04:35:08;;;;;;;4.03;2.38;;;6.40;99.90;;;;;;4934148;29;20028;-76
2022/05/30 04:37:34;;;;;;;4.00;2.20;;;6.50;99.90;;;;;;4918725;29;20118;-75
2022/05/30 04:40:00;;;;;;;7.40;3.38;;;6.60;99.90;;;;;;4934800;29;20043;-75
2022/05/30 04:42:26;;;;;;;4.72;2.17;;;6.80;99.90;;;;;;4935298;29;20016;-75
2022/05/30 04:44:51;;;;;;;4.15;2.30;;;7.10;99.90;;;;;;4933593;29;20067;-76
2022/05/30 04:47:17;;;;;;;3.47;2.17;;;7.20;99.90;;;;;;4936676;29;20024;-75
2022/05/30 04:49:43;;;;;;;4.32;2.58;;;7.20;99.90;;;;;;4937796;29;20067;-75
2022/05/30 04:52:10;;;;;;;2.95;2.38;;;7.40;99.90;;;;;;4940076;29;20070;-75
2022/05/30 04:54:36;;;;;;;4.47;2.92;;;7.50;99.90;;;;;;4938383;29;20032;-76
2022/05/30 04:57:01;;;;;;;5.35;2.60;;;7.60;99.90;;;;;;4939326;29;20358;-76
2022/05/30 04:59:28;;;;;;;3.05;2.75;;;7.50;99.90;;;;;;4938315;29;20102;-75
2022/05/30 05:01:55;;;;;;;3.42;2.80;;;7.40;99.90;;;;;;4937665;29;20067;-75
2022/05/30 05:04:21;;;;;;;7.68;2.80;;;7.40;99.90;;;;;;4938432;29;20051;-75
2022/05/30 05:06:48;;;;;;;2.70;2.50;;;7.40;99.90;;;;;;4937571;29;20051;-75
2022/05/30 05:09:16;;;;;;;5.10;2.95;;;7.40;99.90;;;;;;4936879;29;20560;-75
2022/05/30 05:11:43;;;;;;;3.60;2.50;;;7.40;99.90;;;;;;4937411;29;20440;-75
2022/05/30 05:14:09;;;;;;;3.80;2.58;;;7.40;99.90;;;;;;4919934;29;20525;-75
2022/05/30 05:16:35;;;;;;;6.80;2.95;;;7.40;99.90;;;;;;4936828;29;20384;-75
2022/05/30 05:19:01;;;;;;;4.35;2.55;;;7.40;99.90;;;;;;4935234;29;20028;-75
2022/05/30 05:21:36;;;;;;;2.67;2.40;;;7.50;99.90;;;;;;4919601;29;20100;-76
2022/05/30 05:24:04;;;;;;;5.72;2.55;;;7.50;99.90;;;;;;4939481;29;20375;-75
2022/05/30 05:26:30;;;;;;;6.82;2.80;;;7.60;99.90;;;;;;4918547;29;20059;-76
2022/05/30 05:28:58;;;;;;;5.57;3.38;;;7.60;99.90;;;;;;4936361;29;20110;-76
2022/05/30 05:31:34;;;;;;;3.45;2.30;;;7.80;99.90;;;;;;4922890;29;20031;-76
2022/05/30 05:34:02;;;;;;;3.40;2.63;;;7.80;99.90;;;;;;4930292;29;20044;-76
2022/05/30 05:36:33;;;;;;;4.60;2.63;;;7.80;99.90;;;;;;4938937;29;20610;-76
2022/05/30 05:38:59;;;;;;;3.03;2.28;;;7.90;99.90;;;;;;4946007;29;20327;-76
2022/05/30 05:41:25;;;;;;;5.55;2.08;;;8.00;99.90;;;;;;4937167;29;20115;-75
2022/05/30 05:43:53;;;;;;;2.63;2.22;;;8.00;99.90;;;;;;4936033;29;20385;-75
2022/05/30 05:46:20;;;;;;;2.88;2.30;;;8.10;99.90;;;;;;4935091;29;20040;-76
2022/05/30 05:48:46;;;;;;;6.45;2.85;;;8.20;99.90;;;;;;4935691;29;20039;-76
2022/05/30 05:51:18;;;;;;;2.50;2.30;;;;;;;;;;4920463;29;20020;-76
2022/05/30 05:53:44;;;;;;;5.03;2.50;;;8.20;99.90;;;;;;4941543;29;20469;-75
2022/05/30 05:56:17;;;;;;;5.10;2.53;;;7.60;99.90;;;;;;4923484;29;20034;-76
2022/05/30 05:58:43;;;;;;;2.85;2.20;;;8.30;99.90;;;;;;4940758;29;20503;-76
2022/05/30 06:01:21;;;;;;;2.70;2.45;;;8.50;99.90;;;;;;4941183;29;20123;-76
2022/05/30 06:03:47;;;;;;;2.78;2.20;;;8.50;99.90;;;;;;4922764;29;20020;-76
2022/05/30 06:06:13;;;;;;;5.72;2.42;;;8.40;99.90;;;;;;4922621;29;20026;-76
2022/05/30 06:08:39;;;;;;;2.88;2.63;;;8.70;99.90;;;;;;4939405;29;20035;-76
2022/05/30 06:11:14;;;;;;;3.85;2.33;;;8.70;99.90;;;;;;4939566;29;20128;-76
2022/05/30 06:13:42;;;;;;;4.53;2.80;;;8.90;99.90;;;;;;4923379;29;20054;-76
2022/05/30 06:16:15;;;;;;;3.70;2.63;;;9.30;99.90;;;;;;4940476;29;20078;-76
2022/05/30 06:18:41;;;;;;;5.60;2.38;;;9.30;99.90;;;;;;4939581;29;20075;-76
2022/05/30 06:21:07;;;;;;;3.92;2.08;;;9.60;99.90;;;;;;4938152;29;20130;-76
2022/05/30 06:23:34;;;;;;;4.00;2.72;;;9.80;99.90;;;;;;4923170;29;20051;-76
2022/05/30 06:26:04;;;;;;;8.27;3.33;;;9.70;99.90;;;;;;4938955;29;20055;-76
2022/05/30 06:28:31;;;;;;;4.38;3.42;;;9.50;99.90;;;;;;4938035;29;20026;-81
2022/05/30 06:30:56;;;;;;;3.92;2.90;;;9.50;99.90;;;;;;4940601;29;20028;-83
2022/05/30 06:33:22;;;;;;;4.50;2.63;;;9.40;99.90;;;;;;4922207;29;20083;-79
2022/05/30 06:35:48;;;;;;;6.80;3.38;;;9.60;99.90;;;;;;4922438;29;20023;-78
2022/05/30 06:38:14;;;;;;;3.17;2.78;;;10.20;99.90;;;;;;4924060;29;20544;-80
2022/05/30 06:40:40;;;;;;;2.13;1.92;;;11.20;99.90;;;;;;4936788;29;20409;-79
2022/05/30 06:43:07;;;;;;;2.08;1.88;;;12.20;99.90;;;;;;4964265;28;20396;-79
2022/05/30 06:45:34;;;;;;;2.40;2.20;;;13.10;99.90;;;;;;4940587;29;20620;-79
2022/05/30 06:48:00;;;;;;;3.00;1.67;;;13.40;99.90;;;;;;4943409;29;20027;-80
2022/05/30 06:50:27;;;;;;;2.08;1.88;;;13.40;99.90;;;;;;4960397;29;20026;-79
2022/05/30 06:52:53;;;;;;;2.33;1.63;;;13.70;99.90;;;;;;4957817;29;20179;-79
2022/05/30 06:55:19;;;;;;;3.47;2.40;;;13.30;99.90;;;;;;4960437;29;20026;-81
2022/05/30 07:00:32;;;;;;;2.10;1.65;;;14.30;99.90;;;;;;4957054;29;20038;-80
2022/05/30 07:02:59;;;;;;;2.78;2.40;;;14.20;99.90;;;;;;4954018;29;20031;-79
2022/05/30 07:05:25;;;;;;;3.85;2.28;;;14.00;99.90;;;;;;4955431;29;20059;-80
2022/05/30 07:07:55;;;;;;;6.85;1.92;;;14.40;99.90;;;;;;4954652;28;20458;-80
2022/05/30 07:10:26;;;;;;;11.07;3.33;;;14.50;99.90;;;;;;4952750;28;20070;-80
2022/05/30 07:12:51;;;;;;;2.40;1.90;;;15.00;97.60;;;;;;4954510;29;20063;-79
2022/05/30 07:15:18;;;;;;;2.00;1.80;;;15.40;93.40;;;;;;4956221;29;20079;-80
2022/05/30 07:17:43;;;;;;;5.43;1.60;;;15.50;93.40;;;;;;4962007;28;20031;-79
2022/05/30 07:20:10;;;;;;;3.08;1.80;;;14.90;99.70;;;;;;4963284;29;20171;-80
2022/05/30 07:22:37;;;;;;;3.40;1.70;;;14.80;99.80;;;;;;4961686;29;20031;-80
2022/05/30 07:25:03;;;;;;;4.18;2.10;;;15.60;94.70;;;;;;4959679;29;20082;-77
2022/05/30 07:27:29;;;;;;;3.50;1.85;;;15.40;99.90;;;;;;4949359;29;20511;-80
2022/05/30 07:29:55;;;;;;;3.28;1.60;;;15.60;94.00;;;;;;4948280;29;20372;-80
2022/05/30 07:32:20;;;;;;;2.08;1.70;;;16.40;78.40;;;;;;4947582;29;20031;-84
2022/05/30 07:34:46;;;;;;;3.08;1.60;;;16.60;79.40;;;;;;4943040;29;20031;-83
2022/05/30 07:37:12;;;;;;;2.00;1.50;;;17.30;73.50;;;;;;4930672;29;20058;-81
2022/05/30 07:39:38;;;;;;;2.25;1.73;;;17.30;75.90;;;;;;4947591;29;20037;-88
2022/05/30 07:42:05;;;;;;;2.95;1.50;;;17.00;75.00;;;;;;4950277;29;20042;-83
2022/05/30 07:44:32;;;;;;;3.00;1.85;;;16.10;78.30;;;;;;4952752;29;20293;-80
2022/05/30 07:46:59;;;;;;;2.00;1.80;;;15.60;79.90;;;;;;4953279;29;20028;-85
2022/05/30 07:49:25;;;;;;;2.63;1.80;;;15.90;90.00;;;;;;4955507;28;20033;-84
2022/05/30 07:51:51;;;;;;;2.53;1.70;;;16.10;90.90;;;;;;4946419;29;20453;-83
2022/05/30 07:54:16;;;;;;;2.08;1.85;;;16.80;81.40;;;;;;4946772;29;20498;-82
2022/05/30 07:56:42;;;;;;;4.78;1.48;;;17.70;66.20;;;;;;4929221;29;20374;-82
2022/05/30 07:59:08;;;;;;;2.75;1.50;;;16.90;66.20;;;;;;4931089;28;20035;-82
2022/05/30 08:01:34;;;;;;;1.75;1.50;;;17.10;76.70;;;;;;4946697;29;20051;-81
2022/05/30 08:04:01;;;;;;;3.13;1.80;;;17.10;77.40;;;;;;4929800;29;20024;-82
2022/05/30 08:06:29;;;;;;;4.75;2.00;;;17.30;66.50;;;;;;4944324;29;20031;-80
2022/05/30 08:08:55;;;;;;;3.25;1.63;;;17.40;66.10;;;;;;4929838;29;20678;-82
2022/05/30 08:11:21;;;;;;;3.00;1.77;;;16.30;74.00;;;;;;4939444;29;20219;-81
2022/05/30 08:13:48;;;;;;;1.70;1.60;;;15.80;81.50;;;;;;4939863;29;20076;-81
2022/05/30 08:16:20;;;;;;;1.98;1.40;;;15.50;94.60;;;;;;4937727;29;20027;-82
2022/05/30 08:18:46;;;;;;;6.25;2.40;;;16.40;83.50;;;;;;4938490;29;20035;-81
2022/05/30 08:21:13;;;;;;;3.03;2.35;;;16.20;87.10;;;;;;4937912;29;20332;-82
2022/05/30 08:23:39;;;;;;;4.53;1.85;;;15.60;82.80;;;;;;4943532;29;20024;-81
2022/05/30 08:26:05;;;;;;;2.38;1.65;;;15.60;82.20;;;;;;4944509;29;20059;-81
2022/05/30 08:28:31;;;;;;;4.25;1.63;;;15.30;99.70;;;;;;4941350;29;20031;-82
2022/05/30 08:30:57;;;;;;;3.58;1.52;;;15.70;84.40;;;;;;4938159;29;20054;-80
2022/05/30 08:33:23;;;;;;;4.72;1.30;;;16.00;72.50;;;;;;4937024;29;20119;-81
2022/05/30 08:36:06;;;;;;;2.30;1.20;;;16.70;66.20;;;;;;4946866;29;20023;-81
2022/05/30 08:38:37;;;;;;;1.58;1.40;;;17.10;62.60;;;;;;4957278;28;20354;-81
2022/05/30 08:43:58;;;;;;;1.75;1.30;;;17.10;65.80;;;;;;4961465;29;20098;-81
2022/05/30 08:46:47;;;;;;;1.77;1.10;;;17.10;62.50;;;;;;4963148;28;20039;-81
2022/05/30 08:49:22;;;;;;;2.10;1.30;;;16.70;63.60;;;;;;4931237;29;20055;-81
2022/05/30 08:52:19;;;;;;;1.35;1.20;;;17.00;64.90;;;;;;4937999;29;20039;-81
2022/05/30 08:55:26;;;;;;;3.00;2.05;;;16.50;62.60;;;;;;4921439;29;20024;-81
2022/05/30 08:58:17;;;;;;;1.20;1.08;;;16.80;65.80;;;;;;4860665;29;20068;-80
2022/05/30 09:00:55;;;;;;;2.70;1.60;;;17.10;61.10;;;;;;4938384;29;20044;-81
2022/05/30 09:03:41;;;;;;;0.95;0.70;;;16.80;52.80;;;;;;4939428;29;20028;-81
2022/05/30 09:06:20;;;;;;;0.60;0.60;;;16.90;52.90;;;;;;4939523;29;20091;-81
2022/05/30 09:08:53;;;;;;;2.00;0.60;;;16.70;52.40;;;;;;4920506;29;20032;-80
2022/05/30 09:11:25;;;;;;;5.97;0.88;;;17.50;51.90;;;;;;4928775;29;20027;-79
2022/05/30 09:13:55;;;;;;;1.45;0.90;;;17.60;52.30;;;;;;4929194;29;20295;-79
2022/05/30 09:16:44;;;;;;;1.52;0.90;;;18.10;52.00;;;;;;4928797;29;20087;-79
2022/05/30 09:19:12;;;;;;;1.60;1.50;;;18.30;55.40;;;;;;4937118;29;20094;-81
2022/05/30 09:21:39;;;;;;;1.08;0.90;;;17.40;56.90;;;;;;4942016;29;20058;-81
2022/05/30 09:24:08;;;;;;;1.23;1.13;;;17.00;58.00;;;;;;4940707;29;20344;-81
2022/05/30 09:26:36;;;;;;;2.17;1.50;;;17.00;58.20;;;;;;4923441;29;20067;-81
2022/05/30 09:29:27;;;;;;;4.40;1.95;;;17.30;57.70;;;;;;4919642;29;20036;-82
2022/05/30 09:32:08;;;;;;;1.80;1.45;;;17.50;58.60;;;;;;4911353;29;20366;-82
2022/05/30 09:34:47;;;;;;;1.52;1.42;;;17.70;59.70;;;;;;4914325;29;20420;-81
2022/05/30 09:37:34;;;;;;;1.63;1.10;;;17.50;55.80;;;;;;4947992;29;20035;-82
2022/05/30 09:40:00;;;;;;;1.40;1.30;;;17.50;59.30;;;;;;4951693;29;20031;-81
2022/05/30 09:42:32;;;;;;;0.80;0.80;;;17.20;59.70;;;;;;4969611;28;20039;-85
2022/05/30 09:45:13;;;;;;;1.20;0.88;;;17.20;56.20;;;;;;4958334;29;20046;-84
2022/05/30 09:47:57;;;;;;;1.55;0.82;;;17.30;55.10;;;;;;4970744;29;20527;-81
2022/05/30 09:50:23;;;;;;;1.30;0.95;;;17.30;54.30;;;;;;4963586;28;20050;-83
2022/05/30 09:52:49;;;;;;;0.80;0.80;;;17.00;53.40;;;;;;4975170;28;20437;-82
2022/05/30 09:55:27;;;;;;;1.00;0.90;;;16.90;56.90;;;;;;4957810;29;20059;-83
2022/05/30 09:57:54;;;;;;;4.07;0.90;;;17.20;54.60;;;;;;4969197;28;20079;-84
2022/05/30 10:00:29;;;;;;;2.70;0.70;;;17.00;55.00;;;;;;4959055;28;20043;-85
2022/05/30 10:03:23;;;;;;;2.42;1.30;;;17.40;53.50;;;;;;4950371;28;20036;-88
2022/05/30 10:05:52;;;;;;;2.55;0.93;;;17.70;54.90;;;;;;4955934;29;20004;-84
2022/05/30 10:08:30;;;;;;;3.08;1.10;;;17.90;54.50;;;;;;4958794;28;20024;-76
2022/05/30 10:10:56;;;;;;;2.92;0.93;;;17.90;52.10;;;;;;4939028;29;20047;-76
2022/05/30 10:13:41;;;;;;;1.73;0.88;;;18.20;53.00;;;;;;4973663;29;20039;-88
2022/05/30 10:16:12;;;;;;;1.02;0.88;;;18.20;52.80;;;;;;4946560;29;20059;-87
2022/05/30 10:18:44;;;;;;;2.35;1.20;;;18.00;52.60;;;;;;4936979;29;20035;-84
2022/05/30 10:21:29;;;;;;;5.50;1.45;;;17.90;55.00;;;;;;4942917;29;20035;-85
2022/05/30 10:30:03;;;;;;;1.42;0.98;;;;;;;;;;4914177;29;20039;-78
2022/05/30 10:32:38;;;;;;;1.02;0.80;;;18.30;51.30;;;;;;4927326;29;20035;-76
2022/05/30 10:35:16;;;;;;;0.65;0.45;;;18.00;50.80;;;;;;4958629;29;20038;-78
2022/05/30 10:38:17;;;;;;;2.35;0.90;;;18.30;50.10;;;;;;4965470;29;20034;-80
2022/05/30 10:40:54;;;;;;;0.95;0.73;;;18.40;51.50;;;;;;4893454;29;20537;-80
2022/05/30 10:43:26;;;;;;;1.60;0.90;;;18.60;50.50;;;;;;4948940;28;20027;-78
2022/05/30 10:46:20;;;;;;;2.40;0.57;;;19.00;49.20;;;;;;4949114;29;20085;-79
2022/05/30 10:49:09;;;;;;;1.67;0.55;;;18.40;48.70;;;;;;4949529;29;20039;-79
2022/05/30 10:52:08;;;;;;;0.93;0.47;;;18.40;49.40;;;;;;4952657;28;20041;-80
2022/05/30 10:54:46;;;;;;;2.03;0.65;;;18.30;49.00;;;;;;4953426;29;20511;-79
2022/05/30 10:57:30;;;;;;;1.63;0.60;;;18.90;47.90;;;;;;4960158;29;20515;-79
2022/05/30 11:00:04;;;;;;;3.35;1.35;;;19.00;50.10;;;;;;4958805;29;20039;-77
2022/05/30 11:02:48;;;;;;;0.98;0.55;;;19.30;47.20;;;;;;4948771;28;20071;-77
2022/05/30 11:05:27;;;;;;;2.50;0.50;;;19.30;50.20;;;;;;4949482;29;20499;-75
2022/05/30 11:08:27;;;;;;;1.52;0.57;;;20.30;48.00;;;;;;4951976;29;20039;-73
2022/05/30 11:11:01;;;;;;;0.68;0.40;;;19.90;46.10;;;;;;4953745;29;20124;-75
2022/05/30 11:13:33;;;;;;;1.65;0.57;;;;;;;;;;4962455;29;20106;-73
2022/05/30 11:16:31;;;;;;;1.10;0.50;;;19.80;45.40;;;;;;4932171;29;20042;-76
2022/05/30 11:19:12;;;;;;;0.68;0.45;;;19.60;44.80;;;;;;4947001;28;20042;-74
2022/05/30 11:21:48;;;;;;;1.20;0.50;;;19.90;45.20;;;;;;4947742;29;20085;-76
2022/05/30 11:24:15;;;;;;;0.50;0.45;;;20.10;46.60;;;;;;4948148;29;20023;-76
2022/05/30 11:27:06;;;;;;;0.85;0.50;;;20.00;47.90;;;;;;4948015;29;20107;-75
2022/05/30 11:29:49;;;;;;;0.55;0.30;;;20.20;45.80;;;;;;4947951;29;20043;-73
2022/05/30 11:32:15;;;;;;;1.02;0.40;;;20.50;46.60;;;;;;4947072;28;20031;-74
2022/05/30 11:35:22;;;;;;;1.38;0.88;;;20.80;44.70;;;;;;4949572;29;20023;-76
2022/05/30 11:38:19;;;;;;;0.60;0.47;;;21.20;45.10;;;;;;4910994;29;20436;-75
2022/05/30 11:41:15;;;;;;;2.75;0.60;;;20.60;45.20;;;;;;4929369;29;20041;-76
2022/05/30 11:43:41;;;;;;;1.52;0.63;;;20.60;46.90;;;;;;4926489;29;20271;-76
2022/05/30 11:46:32;;;;;;;1.48;0.47;;;20.30;45.50;;;;;;4909630;29;20632;-74
2022/05/30 11:49:32;;;;;;;1.67;0.88;;;21.00;45.70;;;;;;4926510;29;20067;-74
2022/05/30 11:52:16;;;;;;;2.05;0.57;;;21.60;44.90;;;;;;4925643;29;20114;-74
2022/05/30 11:55:22;;;;;;;1.40;0.50;;;21.40;44.30;;;;;;4929104;29;20023;-74
2022/05/30 11:57:53;;;;;;;1.15;0.47;;;21.30;46.60;;;;;;4910725;29;20063;-76
2022/05/30 12:00:36;;;;;;;1.75;0.40;;;21.20;42.90;;;;;;4927747;29;20091;-75
2022/05/30 12:03:26;;;;;;;0.73;0.70;;;21.00;44.60;;;;;;4928272;29;20028;-76
2022/05/30 12:06:21;;;;;;;1.98;0.63;;;20.70;45.70;;;;;;4930533;29;20055;-77
2022/05/30 12:08:56;;;;;;;0.75;0.50;;;20.90;43.70;;;;;;4901596;29;20035;-78
2022/05/30 12:11:41;;;;;;;0.95;0.70;;;20.20;43.80;;;;;;4933385;29;20040;-78
2022/05/30 12:14:28;;;;;;;6.30;0.50;;;20.00;44.80;;;;;;4937511;29;20044;-77
2022/05/30 12:17:21;;;;;;;2.20;0.50;;;19.60;44.00;;;;;;4934978;29;20039;-77
2022/05/30 12:25:52;;;;;;;2.65;0.50;;;20.50;44.90;;;;;;4929255;29;20038;-76
2022/05/30 12:28:27;;;;;;;0.75;0.40;;;20.50;44.20;;;;;;4928298;29;20183;-77
2022/05/30 12:31:01;;;;;;;1.83;0.50;;;20.90;43.60;;;;;;4914042;29;20027;-80
2022/05/30 12:33:27;;;;;;;0.77;0.43;;;20.90;43.20;;;;;;4929526;29;20028;-75
2022/05/30 12:36:08;;;;;;;3.60;0.50;;;21.30;45.40;;;;;;4920147;29;20027;-78
2022/05/30 12:38:53;;;;;;;1.88;1.08;;;21.50;43.00;;;;;;4948056;29;20503;-77
2022/05/30 12:41:55;;;;;;;0.93;0.80;;;21.00;45.80;;;;;;4948606;29;20443;-78
2022/05/30 12:44:52;;;;;;;2.42;0.68;;;20.60;46.00;;;;;;4948623;29;20185;-76
2022/05/30 12:47:27;;;;;;;1.08;0.60;;;21.10;46.10;;;;;;4922632;29;20396;-76
2022/05/30 12:50:14;;;;;;;3.95;0.50;;;22.10;45.60;;;;;;4946915;29;20027;-77
2022/05/30 12:52:57;;;;;;;1.00;0.50;;;23.10;42.50;;;;;;4948076;29;20059;-79
2022/05/30 12:55:41;;;;;;;1.17;0.40;;;23.20;40.80;;;;;;4948512;29;20649;-79
2022/05/30 12:58:13;;;;;;;1.48;0.50;;;23.30;42.50;;;;;;4946925;29;20035;-79
2022/05/30 13:00:42;;;;;;;4.03;0.50;;;23.20;42.40;;;;;;4946293;29;20043;-76
2022/05/30 13:03:24;;;;;;;0.82;0.40;;;23.70;40.50;;;;;;4929210;29;20030;-77
2022/05/30 13:06:11;;;;;;;1.40;0.60;;;23.60;40.50;;;;;;4946084;29;20059;-75
2022/05/30 13:08:57;;;;;;;0.50;0.50;;;23.00;42.20;;;;;;4953945;28;20035;-76
2022/05/30 13:11:32;;;;;;;1.35;0.73;;;23.30;41.70;;;;;;4950245;29;20035;-74
2022/05/30 13:14:15;;;;;;;0.50;0.50;;;23.10;40.00;;;;;;4932346;29;20215;-74
2022/05/30 13:16:46;;;;;;;3.30;0.32;;;23.00;41.80;;;;;;4946207;29;20061;-76
2022/05/30 13:19:14;;;;;;;1.55;0.90;;;22.90;41.80;;;;;;4950829;29;20027;-75
2022/05/30 13:21:43;;;;;;;1.38;0.40;;;22.30;41.00;;;;;;4949755;29;20070;-75
2022/05/30 13:24:30;;;;;;;1.80;0.43;;;23.10;41.30;;;;;;4951814;29;20027;-78
2022/05/30 13:26:56;;;;;;;0.70;0.38;;;23.50;42.70;;;;;;4950791;29;20015;-75
2022/05/30 13:29:39;;;;;;;0.73;0.50;;;23.20;41.10;;;;;;4950394;28;20108;-78
2022/05/30 13:32:11;;;;;;;0.93;0.30;;;22.40;43.30;;;;;;4951627;29;20028;-78
2022/05/30 13:34:44;;;;;;;1.20;0.45;;;23.50;44.10;;;;;;4950875;29;20094;-78
2022/05/30 13:37:09;;;;;;;0.50;0.50;;;23.40;45.30;;;;;;4950288;29;20065;-78
2022/05/30 13:39:35;;;;;;;3.55;0.30;;;22.10;40.80;;;;;;4951767;29;20472;-78
2022/05/30 13:42:01;;;;;;;1.13;0.98;;;22.90;41.70;;;;;;4951343;29;20559;-76